createdAt,value
2018-07-06T00:02:16.492Z,7.60
2018-07-06T00:05:03.182Z,7.50
2018-07-06T00:07:50.052Z,12.23
2018-07-06T00:10:36.809Z,11.27
2018-07-06T00:13:23.507Z,8.03
2018-07-06T00:16:10.480Z,8.07
2018-07-06T00:18:57.149Z,8.07
2018-07-06T00:21:43.909Z,9.40
2018-07-06T00:24:30.605Z,8.77
2018-07-06T00:27:17.637Z,8.17
2018-07-06T00:30:04.674Z,8.20
2018-07-06T00:32:51.461Z,8.70
2018-07-06T00:35:38.156Z,10.97
2018-07-06T00:38:24.972Z,10.73
2018-07-06T00:41:12.085Z,11.77
2018-07-06T00:43:59.263Z,10.70
2018-07-06T00:46:47.091Z,11.30
2018-07-06T00:49:33.982Z,11.80
2018-07-06T00:52:20.971Z,11.20
2018-07-06T00:55:07.914Z,11.77
2018-07-06T00:57:54.818Z,11.57
2018-07-06T01:00:41.931Z,13.30
2018-07-06T01:03:28.747Z,12.43
2018-07-06T01:06:15.521Z,12.80
2018-07-06T01:09:02.405Z,11.57
2018-07-06T01:11:49.228Z,12.50
2018-07-06T01:14:36.005Z,13.43
2018-07-06T01:17:22.998Z,14.27
2018-07-06T01:20:09.884Z,16.23
2018-07-06T01:22:56.776Z,16.20
2018-07-06T01:25:43.614Z,14.87
2018-07-06T01:28:30.582Z,13.83
2018-07-06T01:31:17.624Z,13.70
2018-07-06T01:34:05.012Z,13.90
2018-07-06T01:36:52.126Z,12.73
2018-07-06T01:39:39.164Z,14.10
2018-07-06T01:42:26.334Z,15.30
2018-07-06T01:45:13.180Z,15.23
2018-07-06T01:47:59.980Z,14.97
2018-07-06T01:50:46.828Z,15.77
2018-07-06T01:53:33.665Z,15.33
2018-07-06T01:56:20.412Z,14.63
2018-07-06T01:59:07.192Z,14.50
2018-07-06T02:01:54.089Z,14.43
2018-07-06T02:04:40.775Z,13.40
2018-07-06T02:07:27.925Z,13.43
2018-07-06T02:10:14.901Z,13.47
2018-07-06T02:13:01.945Z,11.50
2018-07-06T02:15:48.611Z,13.53
2018-07-06T02:18:35.489Z,12.63
2018-07-06T02:21:22.327Z,13.53
2018-07-06T02:24:09.334Z,12.67
2018-07-06T02:26:56.045Z,12.83
2018-07-06T02:29:43.133Z,13.00
2018-07-06T02:32:30.357Z,14.03
2018-07-06T02:35:17.331Z,14.50
2018-07-06T02:38:04.283Z,14.30
2018-07-06T02:40:51.485Z,14.20
2018-07-06T02:43:38.708Z,14.57
2018-07-06T02:46:26.118Z,15.03
2018-07-06T02:49:13.228Z,15.03
2018-07-06T02:52:00.339Z,15.10
2018-07-06T02:54:47.453Z,16.50
2018-07-06T02:57:34.562Z,15.63
2018-07-06T03:00:21.609Z,16.60
2018-07-06T03:03:08.683Z,16.03
2018-07-06T03:05:55.999Z,17.00
2018-07-06T03:08:43.094Z,16.87
2018-07-06T03:11:30.121Z,16.47
2018-07-06T03:14:17.434Z,16.47
2018-07-06T03:17:04.650Z,16.03
2018-07-06T03:19:51.831Z,16.17
2018-07-06T03:22:38.901Z,16.00
2018-07-06T03:25:25.879Z,15.10
2018-07-06T03:28:12.995Z,14.47
2018-07-06T03:31:00.408Z,13.70
2018-07-06T03:33:47.724Z,13.67
2018-07-06T03:36:34.835Z,13.70
2018-07-06T03:39:21.876Z,13.20
2018-07-06T03:42:09.057Z,11.77
2018-07-06T03:44:56.271Z,11.20
2018-07-06T03:47:43.073Z,10.73
2018-07-06T03:50:30.696Z,10.70
2018-07-06T03:53:17.736Z,9.67
2018-07-06T03:56:04.862Z,9.50
2018-07-06T03:58:51.641Z,9.20
2018-07-06T04:01:38.531Z,9.40
2018-07-06T04:04:25.278Z,8.50
2018-07-06T04:07:12.151Z,8.10
2018-07-06T04:09:58.901Z,8.03
2018-07-06T04:12:45.637Z,7.10
2018-07-06T04:15:32.768Z,6.93
2018-07-06T04:18:19.818Z,7.23
2018-07-06T04:21:06.581Z,6.97
2018-07-06T04:23:53.527Z,7.17
2018-07-06T04:26:40.287Z,6.63
2018-07-06T04:29:27.111Z,6.13
2018-07-06T04:32:14.699Z,6.90
2018-07-06T04:35:01.653Z,7.10
2018-07-06T04:37:48.669Z,6.63
2018-07-06T04:40:35.834Z,6.83
2018-07-06T04:43:22.842Z,5.87
2018-07-06T04:46:10.058Z,6.23
2018-07-06T04:48:57.282Z,5.33
2018-07-06T04:51:44.275Z,5.37
2018-07-06T04:54:31.213Z,5.33
2018-07-06T04:57:19.115Z,5.10
2018-07-06T05:00:06.123Z,5.83
2018-07-06T05:02:53.440Z,5.20
2018-07-06T05:05:40.680Z,5.60
2018-07-06T05:08:27.366Z,6.13
2018-07-06T05:11:14.217Z,7.00
2018-07-06T05:14:01.167Z,6.07
2018-07-06T05:16:48.085Z,5.33
2018-07-06T05:19:35.290Z,6.97
2018-07-06T05:22:22.296Z,7.17
2018-07-06T05:25:09.081Z,6.33
2018-07-06T05:27:55.817Z,6.10
2018-07-06T05:30:42.737Z,6.60
2018-07-06T05:33:30.445Z,5.83
2018-07-06T05:36:17.235Z,6.07
2018-07-06T05:39:05.321Z,6.07
2018-07-06T05:41:52.279Z,5.20
2018-07-06T05:44:39.109Z,5.20
2018-07-06T05:47:25.990Z,4.70
2018-07-06T05:50:12.951Z,5.10
2018-07-06T05:52:59.881Z,4.60
2018-07-06T05:55:46.641Z,4.30
2018-07-06T05:58:33.516Z,4.47
2018-07-06T06:01:20.965Z,4.40
2018-07-06T06:04:08.407Z,4.42
2018-07-06T06:06:55.778Z,4.15
2018-07-06T06:09:32.334Z,4.33
2018-07-06T06:12:02.851Z,2.90
2018-07-06T06:14:33.738Z,2.87
2018-07-06T06:17:04.494Z,3.00
2018-07-06T06:19:35.273Z,2.72
2018-07-06T06:22:06.261Z,2.65
2018-07-06T06:24:37.081Z,2.80
2018-07-06T06:27:07.876Z,2.65
2018-07-06T06:29:38.635Z,3.00
2018-07-06T06:32:09.796Z,2.77
2018-07-06T06:34:41.030Z,3.00
2018-07-06T06:37:11.485Z,2.80
2018-07-06T06:39:42.281Z,2.77
2018-07-06T06:42:12.761Z,2.90
2018-07-06T06:44:43.060Z,2.77
2018-07-06T06:47:13.729Z,2.70
2018-07-06T06:49:44.348Z,3.10
2018-07-06T06:52:15.533Z,2.60
2018-07-06T06:54:46.065Z,2.70
2018-07-06T06:57:16.606Z,2.47
2018-07-06T06:59:47.101Z,2.20
2018-07-06T07:02:17.714Z,2.50
2018-07-06T07:04:48.261Z,2.20
2018-07-06T07:07:18.935Z,2.80
2018-07-06T07:09:49.797Z,2.50
2018-07-06T07:12:20.265Z,2.60
2018-07-06T07:14:50.529Z,2.50
2018-07-06T07:17:21.111Z,2.70
2018-07-06T07:19:51.412Z,2.50
2018-07-06T07:22:21.994Z,2.20
2018-07-06T07:24:52.458Z,2.50
2018-07-06T07:27:23.325Z,2.60
2018-07-06T07:29:53.881Z,2.30
2018-07-06T07:32:24.497Z,2.30
2018-07-06T07:34:55.101Z,2.20
2018-07-06T07:37:25.678Z,2.37
2018-07-06T07:39:56.289Z,2.60
2018-07-06T07:42:26.975Z,2.37
2018-07-06T07:44:57.490Z,2.23
2018-07-06T07:47:28.118Z,2.50
2018-07-06T07:49:58.709Z,2.47
2018-07-06T07:53:41.605Z,2.40
2018-07-06T07:56:11.887Z,2.60
2018-07-06T07:58:42.399Z,2.60
2018-07-06T08:01:14.780Z,2.50
2018-07-06T08:03:45.328Z,2.60
2018-07-06T08:06:15.863Z,2.63
2018-07-06T08:08:46.389Z,2.50
2018-07-06T08:11:16.849Z,2.50
2018-07-06T08:13:47.355Z,2.70
2018-07-06T08:16:17.827Z,2.53
2018-07-06T08:18:48.314Z,2.77
2018-07-06T08:21:18.806Z,2.80
2018-07-06T08:23:49.290Z,2.67
2018-07-06T08:26:19.858Z,2.93
2018-07-06T08:28:50.522Z,3.00
2018-07-06T08:31:20.968Z,2.90
2018-07-06T08:34:02.403Z,2.70
2018-07-06T08:37:47.677Z,2.73
2018-07-06T08:40:18.502Z,2.30
2018-07-06T08:42:50.181Z,2.50
2018-07-06T08:45:20.705Z,2.83
2018-07-06T08:47:51.037Z,2.20
2018-07-06T08:50:21.517Z,2.63
2018-07-06T08:52:53.112Z,2.37
2018-07-06T08:55:23.760Z,2.47
2018-07-06T08:57:55.399Z,2.67
2018-07-06T09:00:25.912Z,2.77
2018-07-06T09:02:56.154Z,2.80
2018-07-06T09:05:26.965Z,2.90
2018-07-06T09:07:57.774Z,3.10
2018-07-06T09:10:28.549Z,2.67
2018-07-06T09:12:59.300Z,3.20
2018-07-06T09:15:30.322Z,3.20
2018-07-06T09:18:01.068Z,2.98
2018-07-06T09:20:31.829Z,2.75
2018-07-06T09:23:02.561Z,3.02
2018-07-06T09:25:33.652Z,3.55
2018-07-06T09:28:04.357Z,2.80
2018-07-06T09:30:35.209Z,2.90
2018-07-06T09:33:05.738Z,3.30
2018-07-06T09:35:36.513Z,3.20
2018-07-06T09:38:07.288Z,3.00
2018-07-06T09:40:38.101Z,2.85
2018-07-06T09:43:08.883Z,2.98
2018-07-06T09:45:39.668Z,2.87
2018-07-06T09:48:10.425Z,3.25
2018-07-06T09:50:41.212Z,3.10
2018-07-06T09:53:11.965Z,2.58
2018-07-06T09:55:42.741Z,2.62
2018-07-06T09:58:13.496Z,2.65
2018-07-06T10:00:49.305Z,2.58
2018-07-06T10:03:20.037Z,2.70
2018-07-06T10:05:50.837Z,2.45
2018-07-06T10:08:21.650Z,2.98
2018-07-06T10:10:52.473Z,2.70
2018-07-06T10:13:23.436Z,2.80
2018-07-06T10:15:54.222Z,2.50
2018-07-06T10:18:24.982Z,2.40
2018-07-06T10:20:55.778Z,2.42
2018-07-06T10:23:26.863Z,2.50
2018-07-06T10:25:57.670Z,2.55
2018-07-06T10:30:51.014Z,2.90
2018-07-06T10:33:21.627Z,2.55
2018-07-06T10:35:53.109Z,2.80
2018-07-06T10:38:24.348Z,2.70
2018-07-06T10:40:55.135Z,2.40
2018-07-06T10:43:25.690Z,2.37
2018-07-06T10:45:56.458Z,2.42
2018-07-06T10:48:27.229Z,2.65
2018-07-06T10:50:58.039Z,2.58
2018-07-06T10:53:28.940Z,2.98
2018-07-06T10:56:00.042Z,2.85
2018-07-06T10:58:30.881Z,2.92
2018-07-06T11:01:01.853Z,3.17
2018-07-06T11:03:32.645Z,2.80
2018-07-06T11:06:03.403Z,2.92
2018-07-06T11:08:34.206Z,2.90
2018-07-06T11:11:04.962Z,2.85
2018-07-06T11:13:35.921Z,2.75
2018-07-06T11:16:06.797Z,3.35
2018-07-06T11:18:37.541Z,2.65
2018-07-06T11:21:09.980Z,3.00
2018-07-06T11:23:41.170Z,2.95
2018-07-06T11:26:13.529Z,3.00
2018-07-06T11:28:46.861Z,3.37
2018-07-06T11:31:18.007Z,3.10
2018-07-06T11:33:49.278Z,2.62
2018-07-06T11:36:20.393Z,2.80
2018-07-06T11:38:51.766Z,3.08
2018-07-06T11:41:22.721Z,2.90
2018-07-06T11:43:53.882Z,3.00
2018-07-06T11:46:25.026Z,3.33
2018-07-06T11:48:55.838Z,2.65
2018-07-06T11:51:26.947Z,2.60
2018-07-06T11:53:57.917Z,3.12
2018-07-06T11:56:29.082Z,2.83
2018-07-06T11:59:01.074Z,3.22
2018-07-06T12:01:32.238Z,3.45
2018-07-06T12:04:04.561Z,3.20
2018-07-06T12:06:35.699Z,3.17
2018-07-06T12:09:06.947Z,3.20
2018-07-06T12:11:37.784Z,3.20
2018-07-06T12:14:08.628Z,3.30
2018-07-06T12:16:39.434Z,3.52
2018-07-06T12:19:10.282Z,2.87
2018-07-06T12:21:41.013Z,3.47
2018-07-06T12:24:11.813Z,3.30
2018-07-06T12:26:42.586Z,3.67
2018-07-06T12:29:13.467Z,3.77
2018-07-06T12:31:44.389Z,3.42
2018-07-06T12:34:14.940Z,3.47
2018-07-06T12:36:45.702Z,3.65
2018-07-06T12:39:16.595Z,3.30
2018-07-06T12:41:47.371Z,3.60
2018-07-06T12:44:18.137Z,3.70
2018-07-06T12:46:48.861Z,4.03
2018-07-06T12:49:20.037Z,3.90
2018-07-06T12:51:50.795Z,4.20
2018-07-06T12:54:21.625Z,4.30
2018-07-06T12:56:52.365Z,4.42
2018-07-06T12:59:23.196Z,5.17
2018-07-06T13:01:54.001Z,5.00
2018-07-06T13:04:24.805Z,6.03
2018-07-06T13:06:55.577Z,6.20
2018-07-06T13:09:26.383Z,6.08
2018-07-06T13:11:57.157Z,5.95
2018-07-06T13:14:27.962Z,6.28
2018-07-06T13:16:59.006Z,6.17
2018-07-06T13:19:29.765Z,5.83
2018-07-06T13:22:00.511Z,6.50
2018-07-06T13:24:31.293Z,6.08
2018-07-06T13:27:02.061Z,6.12
2018-07-06T13:29:32.861Z,5.92
2018-07-06T13:32:03.666Z,5.95
2018-07-06T13:34:34.453Z,6.20
2018-07-06T13:37:05.312Z,6.83
2018-07-06T13:39:36.278Z,6.65
2018-07-06T13:42:07.027Z,6.30
2018-07-06T13:44:37.830Z,7.42
2018-07-06T13:47:08.569Z,7.10
2018-07-06T13:49:39.361Z,6.75
2018-07-06T13:52:10.188Z,7.03
2018-07-06T13:54:40.977Z,7.05
2018-07-06T13:57:11.729Z,6.80
2018-07-06T13:59:42.525Z,6.83
2018-07-06T14:02:13.274Z,6.67
2018-07-06T14:04:44.065Z,7.00
2018-07-06T14:07:14.904Z,7.28
2018-07-06T14:09:45.725Z,7.00
2018-07-06T14:12:16.545Z,6.85
2018-07-06T14:14:47.325Z,7.15
2018-07-06T14:17:18.076Z,7.58
2018-07-06T14:19:48.894Z,6.78
2018-07-06T14:22:19.649Z,7.20
2018-07-06T14:24:50.430Z,6.92
2018-07-06T14:27:21.161Z,7.37
2018-07-06T14:29:51.981Z,7.60
2018-07-06T14:32:22.760Z,7.08
2018-07-06T14:34:53.683Z,6.90
2018-07-06T14:37:24.635Z,6.62
2018-07-06T14:39:55.567Z,6.50
2018-07-06T14:42:26.410Z,6.30
2018-07-06T14:44:56.953Z,6.25
2018-07-06T14:47:27.701Z,6.05
2018-07-06T14:49:58.505Z,5.55
2018-07-06T14:52:29.335Z,5.33
2018-07-06T14:55:00.123Z,5.37
2018-07-06T14:57:30.895Z,3.92
2018-07-06T15:00:01.699Z,3.90
2018-07-06T15:02:32.478Z,4.10
2018-07-06T15:05:03.314Z,4.62
2018-07-06T15:07:34.309Z,4.05
2018-07-06T15:10:05.129Z,3.58
2018-07-06T15:12:35.885Z,3.92
2018-07-06T15:15:07.054Z,3.62
2018-07-06T15:17:38.218Z,2.90
2018-07-06T15:20:09.009Z,3.08
2018-07-06T15:22:39.837Z,3.20
2018-07-06T15:25:10.666Z,2.60
2018-07-06T15:27:41.598Z,2.92
2018-07-06T15:30:12.412Z,2.60
2018-07-06T15:32:43.179Z,2.87
2018-07-06T15:35:14.293Z,2.72
2018-07-06T15:37:45.071Z,2.67
2018-07-06T15:40:16.036Z,2.90
2018-07-06T15:42:46.854Z,2.40
2018-07-06T15:45:17.685Z,2.77
2018-07-06T15:47:48.474Z,2.62
2018-07-06T15:50:19.242Z,2.30
2018-07-06T15:52:50.412Z,2.60
2018-07-06T15:55:21.214Z,2.42
2018-07-06T15:57:52.011Z,2.50
2018-07-06T16:00:22.826Z,2.90
2018-07-06T16:02:54.214Z,2.60
2018-07-06T16:05:25.023Z,2.30
2018-07-06T16:07:55.875Z,2.27
2018-07-06T16:10:26.670Z,2.20
2018-07-06T16:12:57.441Z,2.30
2018-07-06T16:15:28.280Z,2.10
2018-07-06T16:17:59.053Z,2.10
2018-07-06T16:20:29.846Z,2.10
2018-07-06T16:23:00.609Z,2.15
2018-07-06T16:25:31.393Z,2.25
2018-07-06T16:28:02.162Z,2.25
2018-07-06T16:30:32.984Z,2.42
2018-07-06T16:33:03.538Z,2.50
2018-07-06T16:35:34.361Z,2.50
2018-07-06T16:38:05.121Z,2.87
2018-07-06T16:40:36.047Z,2.52
2018-07-06T16:43:06.904Z,3.10
2018-07-06T16:45:37.816Z,3.10
2018-07-06T16:48:08.912Z,2.60
2018-07-06T16:50:39.883Z,2.75
2018-07-06T16:53:11.083Z,3.12
2018-07-06T16:55:42.264Z,2.90
2018-07-06T16:58:13.310Z,3.17
2018-07-06T17:00:44.492Z,3.08
2018-07-06T17:03:15.569Z,3.00
2018-07-06T17:05:45.779Z,3.10
2018-07-06T17:08:16.558Z,3.10
2018-07-06T17:10:46.827Z,3.10
2018-07-06T17:13:17.033Z,3.20
2018-07-06T17:15:47.246Z,3.30
2018-07-06T17:18:18.053Z,3.47
2018-07-06T17:20:48.874Z,3.37
2018-07-06T17:23:19.631Z,3.75
2018-07-06T17:25:50.434Z,3.85
2018-07-06T17:28:21.268Z,4.05
2018-07-06T17:30:52.077Z,3.42
2018-07-06T17:33:22.942Z,3.50
2018-07-06T17:35:53.726Z,3.75
2018-07-06T17:38:24.483Z,4.00
2018-07-06T17:40:55.426Z,3.55
2018-07-06T17:43:26.292Z,3.98
2018-07-06T17:45:57.107Z,4.17
2018-07-06T17:48:27.885Z,3.75
2018-07-06T17:50:58.745Z,3.87
2018-07-06T17:53:29.517Z,3.52
2018-07-06T17:56:00.317Z,3.47
2018-07-06T17:58:31.078Z,4.08
2018-07-06T18:01:01.855Z,3.40
2018-07-06T18:03:32.662Z,3.80
2018-07-06T18:06:03.463Z,3.67
2018-07-06T18:08:34.241Z,3.17
2018-07-06T18:11:05.046Z,2.95
2018-07-06T18:13:35.869Z,3.25
2018-07-06T18:16:06.731Z,2.80
2018-07-06T18:18:37.188Z,3.10
2018-07-06T18:21:07.409Z,3.27
2018-07-06T18:23:38.191Z,3.27
2018-07-06T18:26:08.983Z,3.15
2018-07-06T18:28:39.770Z,3.27
2018-07-06T18:31:10.007Z,3.10
2018-07-06T18:33:40.254Z,3.10
2018-07-06T18:36:10.541Z,3.03
2018-07-06T18:38:40.761Z,3.03
2018-07-06T18:41:11.101Z,3.13
2018-07-06T18:43:41.336Z,3.17
2018-07-06T18:46:11.542Z,3.07
2018-07-06T18:48:41.830Z,2.90
2018-07-06T18:51:12.038Z,3.10
2018-07-06T18:53:42.273Z,3.43
2018-07-06T18:56:12.894Z,3.20
2018-07-06T18:58:43.122Z,3.43
2018-07-06T19:01:13.302Z,3.10
2018-07-06T19:03:43.486Z,3.37
2018-07-06T19:06:13.723Z,3.13
2018-07-06T19:08:43.913Z,3.40
2018-07-06T19:11:14.122Z,3.57
2018-07-06T19:13:44.292Z,4.10
2018-07-06T19:16:14.885Z,3.97
2018-07-06T19:18:45.361Z,3.87
2018-07-06T19:21:15.564Z,4.13
2018-07-06T19:23:45.751Z,4.60
2018-07-06T19:26:16.015Z,4.97
2018-07-06T19:28:46.173Z,5.27
2018-07-06T19:31:16.702Z,5.00
2018-07-06T19:33:47.235Z,6.20
2018-07-06T19:36:17.478Z,6.30
2018-07-06T19:38:47.860Z,5.27
2018-07-06T19:41:18.178Z,6.80
2018-07-06T19:43:48.353Z,6.30
2018-07-06T19:46:18.604Z,6.20
2018-07-06T19:48:48.789Z,6.47
2018-07-06T19:51:19.009Z,5.67
2018-07-06T19:53:49.245Z,6.40
2018-07-06T19:56:19.598Z,6.50
2018-07-06T19:58:49.812Z,6.70
2018-07-06T20:01:20.027Z,5.07
2018-07-06T20:03:50.265Z,4.70
2018-07-06T20:06:20.521Z,4.17
2018-07-06T20:08:50.733Z,3.83
2018-07-06T20:11:20.915Z,4.07
2018-07-06T20:13:51.117Z,4.10
2018-07-06T20:16:21.354Z,4.10
2018-07-06T20:18:51.568Z,4.30
2018-07-06T20:21:21.758Z,4.40
2018-07-06T20:23:52.001Z,4.30
2018-07-06T20:26:22.184Z,4.73
2018-07-06T20:28:52.439Z,4.30
2018-07-06T20:31:22.638Z,4.83
2018-07-06T20:33:52.905Z,4.37
2018-07-06T20:36:23.107Z,4.43
2018-07-06T20:38:53.063Z,4.20
2018-07-06T20:41:23.400Z,4.47
2018-07-06T20:43:53.626Z,4.77
2018-07-06T20:46:23.822Z,4.87
2018-07-06T20:48:54.039Z,5.13
2018-07-06T20:51:24.253Z,5.33
2018-07-06T20:53:54.536Z,5.30
2018-07-06T20:56:24.946Z,5.00
2018-07-06T20:58:55.306Z,5.13
2018-07-06T21:01:25.465Z,5.40
2018-07-06T21:03:55.703Z,4.83
2018-07-06T21:06:25.918Z,5.30
2018-07-06T21:08:56.105Z,5.90
2018-07-06T21:11:26.302Z,5.63
2018-07-06T21:13:56.595Z,6.00
2018-07-06T21:16:26.826Z,6.40
2018-07-06T21:18:57.010Z,6.83
2018-07-06T21:21:27.206Z,7.13
2018-07-06T21:23:57.279Z,8.07
2018-07-06T21:26:27.733Z,8.67
2018-07-06T21:28:57.925Z,9.53
2018-07-06T21:31:27.894Z,8.90
2018-07-06T21:33:58.098Z,8.10
2018-07-06T21:36:28.374Z,7.00
2018-07-06T21:38:58.656Z,7.33
2018-07-06T21:41:28.998Z,6.70
2018-07-06T21:43:59.206Z,6.90
2018-07-06T21:46:29.426Z,6.00
2018-07-06T21:48:59.637Z,6.17
2018-07-06T21:51:30.050Z,6.00
2018-07-06T21:54:00.246Z,5.83
2018-07-06T21:56:30.465Z,6.20
2018-07-06T21:59:00.663Z,6.23
2018-07-06T22:01:30.862Z,7.03
2018-07-06T22:04:00.772Z,7.03
2018-07-06T22:06:31.102Z,7.20
2018-07-06T22:09:01.280Z,6.80
2018-07-06T22:11:31.250Z,6.93
2018-07-06T22:14:01.452Z,6.67
2018-07-06T22:16:31.694Z,7.03
2018-07-06T22:19:01.897Z,7.50
2018-07-06T22:21:32.125Z,7.83
2018-07-06T22:24:02.342Z,8.00
2018-07-06T22:26:32.558Z,7.03
2018-07-06T22:29:02.759Z,7.37
2018-07-06T22:31:33.033Z,8.10
2018-07-06T22:34:03.233Z,7.47
2018-07-06T22:36:33.473Z,7.67
2018-07-06T22:39:03.892Z,7.50
2018-07-06T22:41:34.261Z,7.90
2018-07-06T22:44:04.425Z,7.70
2018-07-06T22:46:34.690Z,7.20
2018-07-06T22:49:04.870Z,7.27
2018-07-06T22:51:35.104Z,7.20
2018-07-06T22:54:05.394Z,7.90
2018-07-06T22:56:35.957Z,8.10
2018-07-06T22:59:06.309Z,8.10
2018-07-06T23:01:36.525Z,7.73
2018-07-06T23:04:06.865Z,8.53
2018-07-06T23:06:37.258Z,7.60
2018-07-06T23:09:08.383Z,7.70
2018-07-06T23:11:38.617Z,8.10
2018-07-06T23:14:08.855Z,8.13
2018-07-06T23:16:39.062Z,8.63
2018-07-06T23:19:09.268Z,8.97
2018-07-06T23:21:39.557Z,8.03
2018-07-06T23:24:09.849Z,8.60
2018-07-06T23:26:40.071Z,8.57
2018-07-06T23:29:10.533Z,8.23
2018-07-06T23:31:40.774Z,8.70
2018-07-06T23:34:10.991Z,8.63
2018-07-06T23:36:41.158Z,8.30
2018-07-06T23:39:11.346Z,9.60
2018-07-06T23:41:41.674Z,9.87
2018-07-06T23:44:11.890Z,9.40
2018-07-06T23:46:42.163Z,8.83
2018-07-06T23:49:12.362Z,9.33
2018-07-06T23:51:42.680Z,8.77
2018-07-06T23:54:12.933Z,8.63
2018-07-06T23:56:43.205Z,8.73
2018-07-06T23:59:13.441Z,8.97
